ADDS METAR Data INFO
IDs: Format: Raw Decoded Include TAF

Data at: 0931 UTC 25 Jun 2018

KFCI 250856Z AUTO 33003KT 10SM CLR 21/21 A2997 RMK AO2 SLP163 T02110206 53010 $
KFCI 250756Z AUTO 31003KT 10SM CLR 21/20 A2996 RMK AO2 SLP160 T02110200 $
KFCI 250656Z AUTO 00000KT 10SM CLR 21/21 A2995 RMK AO2 SLP153 T02110206 $
KFCI 250556Z AUTO 00000KT 10SM CLR 21/21 A2994 RMK AO2 SLP152 T02110211 10233 20211 55004 $
KFCI 250456Z AUTO 00000KT 10SM CLR 22/21 A2994 RMK AO2 SLP150 T02170211 403220211 $
KFCI 250356Z AUTO 00000KT 10SM CLR 22/22 A2994 RMK AO2 SLP152 T02220217 $
KFCI 250256Z AUTO 00000KT 10SM CLR 22/22 A2996 RMK AO2 SLP157 T02220217 53017 $
KFCI 250156Z AUTO 00000KT 10SM CLR 22/22 A2994 RMK AO2 SLP152 T02220217 $
KFCI 250056Z AUTO 00000KT 10SM CLR 23/22 A2992 RMK AO2 SLP144 T02330222 $
KFCI 242356Z AUTO 00000KT 10SM CLR 23/22 A2991 RMK AO2 LTG DSNT SE AND S SLP141 60013 T02330222 10322 20228 51016 $
KFCI 242256Z AUTO 00000KT 10SM FEW120 24/22 A2989 RMK AO2 LTG DSNT E-SW TSE43RAE37 SLP136 P0009 T02440222 $
KFCI 242249Z AUTO 00000KT 10SM FEW060 24/22 A2990 RMK AO2 LTG DSNT E-SW TSE43RAE37 P0009 $
KFCI 242211Z AUTO VRB06KT 10SM -TSRA FEW017 SCT039 BKN065 23/22 A2991 RMK AO2 LTG DSNT ALQDS P0008 $
KFCI 242203Z AUTO 33010G38KT 2 1/2SM TSRA BR FEW017 SCT032 BKN070 23/21 A2992 RMK AO2 VIS 3/4V5 LTG DSNT ALQDS P0008 $
KFCI 242156Z AUTO 33028G38KT 3SM +TSRA FEW013 SCT065 28/22 A2991 RMK AO2 PK WND 33038/2155 LTG DSNT ALQDS TSB37RAB56 PRESRR SLP143 P0004 T02780222 $
KFCI 242143Z AUTO 22005KT 10SM VCTS FEW047 29/22 A2985 RMK AO2 LTG DSNT W-N TSB37 $
KFCI 242056Z AUTO 24008KT 10SM FEW041 32/23 A2986 RMK AO2 LTG DSNT N AND NE SLP124 T03170228 55007 $
KFCI 241956Z AUTO 22007KT 10SM SCT048 31/23 A2986 RMK AO2 SLP122 T03110228 $
KFCI 241856Z AUTO 23009G14KT 10SM FEW040 31/23 A2987 RMK AO2 SLP126 T03110228 $
KFCI 241756Z AUTO 25007KT 10SM FEW040 31/23 A2988 RMK AO2 SLP131 60000 T03110228 10311 20244 58006 $
KFCI 241656Z AUTO 25007G15KT 10SM FEW037 31/22 A2990 RMK AO2 SLP137 T03060222 $
KFCI 241556Z AUTO 21007KT 10SM CLR 30/22 A2990 RMK AO2 SLP136 T03000217 $
KFCI 241456Z AUTO VRB04KT 10SM CLR 30/22 A2990 RMK AO2 SLP137 60000 T03000222 53001 $
KFCI 241356Z AUTO 35003KT 10SM FEW048 BKN095 OVC120 25/22 A2989 RMK AO2 RAB35E53 SLP134 P0000 T02500217 $
KFCI 241256Z AUTO 31007KT 10SM BKN110 25/22 A2990 RMK AO2 SLP137 T02500217 $
KFCI 241156Z AUTO VRB03KT 10SM BKN100 24/22 A2990 RMK AO2 SLP136 T02440222 10244 20211 53014 $
KFCI 241056Z AUTO 00000KT 10SM BKN100 23/22 A2987 RMK AO2 SLP129 T02280217 $
KFCI 240956Z AUTO 00000KT 10SM CLR 22/21 A2987 RMK AO2 SLP126 T02220211 $
KFCI 240856Z AUTO 00000KT 10SM CLR 21/21 A2985 RMK AO2 SLP122 T02110206 56002 $
KFCI 240756Z AUTO 00000KT 10SM CLR 22/21 A2985 RMK AO2 SLP122 T02220211 $
KFCI 240656Z AUTO 00000KT 10SM CLR 23/21 A2986 RMK AO2 SLP124 T02280211 $
KFCI 240556Z AUTO 00000KT 10SM CLR 22/21 A2986 RMK AO2 SLP125 T02220211 10283 20222 51003 $
KFCI 240456Z AUTO 00000KT 10SM CLR 23/22 A2986 RMK AO2 SLP124 T02280217 403060217 $
KFCI 240356Z AUTO 00000KT 10SM CLR 24/22 A2986 RMK AO2 SLP124 T02390222 $
KFCI 240256Z AUTO 00000KT 10SM CLR 24/22 A2985 RMK AO2 SLP121 T02390222 53011 $
KFCI 240156Z AUTO 20003KT 10SM CLR 25/22 A2985 RMK AO2 SLP120 T02500222 $
KFCI 240056Z AUTO 00000KT 10SM CLR 26/22 A2982 RMK AO2 SLP111 T02610222 $
KFCI 232356Z AUTO 00000KT 10SM CLR 28/22 A2982 RMK AO2 SLP110 T02830217 10306 20283 53010 $
KFCI 232256Z AUTO 29006KT 10SM SCT110 29/23 A2981 RMK AO2 SLP107 T02940228 $
KFCI 232156Z AUTO 26006KT 10SM CLR 30/23 A2979 RMK AO2 SLP099 T03000228 $